Time;durP1;ratioP1;P1;durP2;ratioP2;P2;SDS_P1;SDS_P2;PMS_P1;PMS_P2;Temp;Humidity;BMP_temperature;BMP_pressure;BME280_temperature;BME280_humidity;BME280_pressure;Samples;Min_cycle;Max_cycle;Signal;HPM_P1;HPM_P2
2021/04/26 00:01:30;;;;;;;8.50;5.50;;;;;;;3.09;61.50;101051.47;5055992;28;20480;-63
2021/04/26 00:03:58;;;;;;;11.35;5.63;;;;;;;3.07;62.18;101048.13;5056125;28;20060;-64
2021/04/26 00:06:25;;;;;;;5.40;4.63;;;;;;;3.04;61.95;101051.34;5056680;28;20088;-63
2021/04/26 00:08:52;;;;;;;8.02;5.20;;;;;;;2.97;61.47;101050.69;5055697;28;20147;-63
2021/04/26 00:11:22;;;;;;;8.45;5.80;;;;;;;2.94;62.44;101052.03;5055933;28;20406;-63
2021/04/26 00:13:48;;;;;;;8.52;5.25;;;;;;;2.87;62.59;101053.28;5044256;28;20410;-63
2021/04/26 00:16:15;;;;;;;8.40;5.53;;;;;;;2.85;62.31;101048.00;5040831;28;20057;-63
2021/04/26 00:18:42;;;;;;;9.52;5.53;;;;;;;2.83;62.61;101053.78;5056194;28;20057;-63
2021/04/26 00:21:12;;;;;;;10.63;5.07;;;;;;;2.81;63.26;101050.44;5055592;28;20504;-63
2021/04/26 00:23:42;;;;;;;16.67;6.30;;;;;;;2.80;63.28;101046.00;5052442;28;20517;-63
2021/04/26 00:26:09;;;;;;;9.40;5.97;;;;;;;2.75;63.02;101043.19;5035752;28;20057;-63
2021/04/26 00:28:38;;;;;;;12.15;5.15;;;;;;;2.74;62.81;101052.50;5035917;28;20049;-63
2021/04/26 00:31:05;;;;;;;9.73;5.30;;;;;;;2.72;62.47;101037.34;5035798;28;20061;-63
2021/04/26 00:33:32;;;;;;;8.90;5.38;;;;;;;2.68;63.30;101038.91;5035510;28;20049;-63
2021/04/26 00:35:59;;;;;;;7.18;5.07;;;;;;;2.66;62.99;101035.59;5040298;28;20044;-63
2021/04/26 00:38:27;;;;;;;8.02;5.43;;;;;;;2.59;62.93;101041.25;5055881;28;20049;-63
2021/04/26 00:40:54;;;;;;;8.52;4.82;;;;;;;2.57;62.88;101033.22;5055550;28;20048;-63
2021/04/26 00:43:21;;;;;;;9.07;5.03;;;;;;;2.55;63.12;101031.81;5055128;28;20056;-63
2021/04/26 00:45:49;;;;;;;7.93;4.90;;;;;;;2.52;63.08;101024.91;5053386;28;20065;-63
2021/04/26 00:48:16;;;;;;;9.38;5.50;;;;;;;2.51;63.43;101019.63;5048673;28;20049;-63
2021/04/26 00:50:43;;;;;;;8.25;4.85;;;;;;;2.49;63.55;101030.06;5035301;28;20053;-63
2021/04/26 00:53:14;;;;;;;9.85;5.65;;;;;;;2.44;63.63;101019.81;5035687;28;20517;-63
2021/04/26 00:55:44;;;;;;;6.95;4.65;;;;;;;2.42;63.74;101016.47;5035083;28;20053;-63
2021/04/26 00:58:11;;;;;;;8.35;5.50;;;;;;;2.39;63.93;101017.78;5035586;28;20050;-63
2021/04/26 01:00:38;;;;;;;11.63;6.43;;;;;;;2.36;64.27;101020.19;5035986;28;20060;-63
2021/04/26 01:03:05;;;;;;;11.63;5.88;;;;;;;2.35;64.52;101013.88;5036178;28;20050;-63
2021/04/26 01:05:34;;;;;;;8.18;6.05;;;;;;;2.34;64.19;101014.94;5035180;28;20049;-63
2021/04/26 01:08:01;;;;;;;10.77;5.72;;;;;;;2.33;64.53;101021.53;5034411;28;20057;-63
2021/04/26 01:10:32;;;;;;;8.90;5.68;;;;;;;2.35;64.26;101010.25;5034871;28;20053;-64
2021/04/26 01:13:14;;;;;;;13.18;5.80;;;;;;;2.36;64.08;101021.03;5052916;28;20057;-64
2021/04/26 01:15:46;;;;;;;10.88;5.65;;;;;;;2.35;64.43;101016.63;5054768;28;20060;-63
2021/04/26 01:18:22;;;;;;;9.93;5.55;;;;;;;2.33;64.24;101006.94;5055174;28;20071;-63
2021/04/26 01:21:15;;;;;;;10.25;6.03;;;;;;;2.29;63.97;101001.09;5035476;28;20057;-63
2021/04/26 01:24:11;;;;;;;10.00;5.90;;;;;;;2.27;64.32;101003.28;5021610;28;20053;-63
2021/04/26 01:27:05;;;;;;;9.95;5.65;;;;;;;2.24;64.13;101003.75;5036098;28;20057;-62
2021/04/26 01:30:02;;;;;;;9.15;5.53;;;;;;;2.20;64.62;101005.31;5034675;28;20053;-63
2021/04/26 01:32:37;;;;;;;8.25;5.63;;;;;;;2.17;63.94;101000.31;5032380;28;20409;-63
2021/04/26 01:35:06;;;;;;;10.32;5.63;;;;;;;2.15;63.83;101005.22;5035124;28;20057;-63
2021/04/26 01:37:35;;;;;;;9.30;5.78;;;;;;;2.16;64.80;101007.75;5034937;28;20064;-63
2021/04/26 01:40:08;;;;;;;9.77;5.60;;;;;;;2.15;64.64;101010.72;5041307;28;20041;-63
2021/04/26 01:42:38;;;;;;;11.13;5.90;;;;;;;2.14;64.56;101014.53;5054135;28;20417;-63
2021/04/26 01:45:07;;;;;;;10.73;6.40;;;;;;;2.08;64.58;101010.00;5054193;28;20060;-63
2021/04/26 01:47:37;;;;;;;8.52;6.28;;;;;;;2.06;64.88;101006.69;5054405;28;20059;-62
2021/04/26 01:50:08;;;;;;;12.48;6.45;;;;;;;2.03;65.04;101002.50;5034261;28;20049;-63
2021/04/26 01:52:38;;;;;;;8.30;6.20;;;;;;;2.02;65.44;101000.84;5037073;28;20054;-62
2021/04/26 01:55:06;;;;;;;;;;;;;;;1.98;64.72;100994.19;5034660;28;20053;-63
2021/04/26 01:57:33;;;;;;;7.85;5.22;;;;;;;1.93;64.18;100991.31;5034256;28;20371;-63
2021/04/26 02:00:05;;;;;;;11.68;6.00;;;;;;;1.89;63.86;101001.13;5034321;28;20057;-63
2021/04/26 02:02:33;;;;;;;9.55;5.88;;;;;;;1.82;64.06;100995.78;5034274;28;20068;-62
2021/04/26 02:05:01;;;;;;;9.95;6.40;;;;;;;1.68;64.21;100994.38;5034005;28;20061;-62
2021/04/26 02:07:29;;;;;;;11.25;6.13;;;;;;;1.60;64.79;100999.19;5049653;28;20076;-63
2021/04/26 02:09:57;;;;;;;11.18;6.70;;;;;;;1.56;65.06;100992.50;5054358;28;20477;-62
2021/04/26 02:12:24;;;;;;;11.23;7.05;;;;;;;1.54;65.30;101000.16;5054114;28;20140;-62
2021/04/26 02:14:53;;;;;;;13.82;7.25;;;;;;;1.50;65.27;100998.94;5053597;28;20064;-63
2021/04/26 02:17:23;;;;;;;11.57;7.30;;;;;;;1.47;66.00;100993.97;5052719;28;20048;-62
2021/04/26 02:19:50;;;;;;;11.95;7.82;;;;;;;1.40;65.99;100994.06;5035250;28;20049;-63
2021/04/26 02:22:18;;;;;;;11.88;7.43;;;;;;;1.40;65.96;100993.25;5033876;28;20093;-63
2021/04/26 02:24:44;;;;;;;13.10;7.13;;;;;;;1.43;66.51;100987.28;5045272;28;20056;-62
2021/04/26 02:27:12;;;;;;;11.55;7.18;;;;;;;1.44;66.71;100988.94;5053715;28;20497;-62
2021/04/26 02:29:39;;;;;;;11.45;7.78;;;;;;;1.44;66.63;100983.44;5052850;28;20057;-62
2021/04/26 02:32:09;;;;;;;12.65;7.53;;;;;;;1.46;66.83;100980.47;5053094;28;20045;-62
2021/04/26 02:34:38;;;;;;;;;;;;;;;1.42;67.18;100982.84;5053650;28;20079;-62
2021/04/26 02:37:24;;;;;;;11.55;8.02;;;;;;;1.42;66.26;100978.19;5053841;28;19921;-63
2021/04/26 02:39:53;;;;;;;13.30;7.20;;;;;;;1.40;66.84;100979.50;5037078;28;20050;-62
2021/04/26 02:42:23;;;;;;;10.63;7.27;;;;;;;1.44;66.72;100980.69;5033187;28;20056;-62
2021/04/26 02:44:51;;;;;;;11.07;6.88;;;;;;;1.47;66.12;100976.63;5033261;28;20049;-62
2021/04/26 02:47:21;;;;;;;10.73;6.57;;;;;;;1.47;66.12;100980.22;5033477;28;20422;-62
2021/04/26 02:49:49;;;;;;;13.02;6.85;;;;;;;1.47;65.97;100977.50;5033737;28;20072;-63
2021/04/26 02:52:19;;;;;;;12.88;6.95;;;;;;;1.44;66.02;100971.63;5033376;28;20056;-63
2021/04/26 02:54:50;;;;;;;11.80;7.18;;;;;;;1.43;66.11;100965.31;5032776;28;20121;-63
2021/04/26 02:57:17;;;;;;;8.50;6.00;;;;;;;1.44;65.84;100966.97;5033373;28;20045;-62
2021/04/26 02:59:45;;;;;;;9.65;6.35;;;;;;;1.43;65.64;100962.56;5033643;28;20049;-62
2021/04/26 03:02:15;;;;;;;10.40;6.03;;;;;;;1.37;65.62;100960.78;5032913;28;20046;-62
2021/04/26 03:04:42;;;;;;;11.02;7.32;;;;;;;1.33;65.37;100949.47;5033324;28;20516;-62
2021/04/26 03:07:09;;;;;;;15.20;7.45;;;;;;;1.29;65.30;100950.19;5032607;28;20065;-62
2021/04/26 03:09:36;;;;;;;16.33;6.55;;;;;;;1.19;65.98;100948.03;5034360;28;20165;-62
2021/04/26 03:12:05;;;;;;;14.65;6.95;;;;;;;1.18;65.82;100938.97;5032931;28;20056;-62
2021/04/26 03:14:33;;;;;;;12.50;7.60;;;;;;;1.17;65.93;100937.31;5033166;28;20387;-62
2021/04/26 03:17:00;;;;;;;15.70;8.50;;;;;;;1.10;66.60;100939.34;5033205;28;20390;-62
2021/04/26 03:19:27;;;;;;;15.35;8.05;;;;;;;1.08;66.87;100933.25;5032496;28;20053;-62
2021/04/26 03:21:56;;;;;;;16.77;8.80;;;;;;;1.08;66.97;100927.78;5033032;28;20049;-63
2021/04/26 03:24:26;;;;;;;17.02;8.07;;;;;;;1.08;67.09;100930.53;5041407;28;20068;-63
2021/04/26 03:26:57;;;;;;;13.60;7.93;;;;;;;1.07;66.78;100926.13;5033136;28;20366;-63
2021/04/26 03:29:29;;;;;;;14.98;7.85;;;;;;;1.08;67.01;100927.78;5032990;28;20049;-62
2021/04/26 03:31:57;;;;;;;14.82;8.38;;;;;;;1.05;67.06;100928.28;5032722;28;20512;-63
2021/04/26 03:34:24;;;;;;;13.48;7.20;;;;;;;1.08;67.18;100933.25;5032050;28;20391;-62
2021/04/26 03:36:51;;;;;;;13.68;7.70;;;;;;;1.08;67.08;100925.03;5032481;28;20057;-62
2021/04/26 03:39:18;;;;;;;10.73;7.68;;;;;;;1.08;67.00;100933.25;5043288;28;20049;-62
2021/04/26 03:41:48;;;;;;;14.57;7.70;;;;;;;1.06;66.56;100932.66;5052286;28;20465;-62
2021/04/26 03:44:17;;;;;;;14.90;7.60;;;;;;;1.04;66.51;100934.00;5052695;28;20505;-62
2021/04/26 03:46:53;;;;;;;11.70;6.87;;;;;;;0.99;66.87;100935.53;5053051;28;20049;-62
2021/04/26 03:49:22;;;;;;;12.88;7.75;;;;;;;0.97;66.84;100932.19;5052358;28;20379;-62
2021/04/26 03:51:50;;;;;;;11.18;7.28;;;;;;;0.95;67.05;100917.91;5052644;28;20060;-62
2021/04/26 03:54:20;;;;;;;15.95;8.60;;;;;;;0.94;66.97;100923.59;5051268;28;20521;-62
2021/04/26 03:56:47;;;;;;;13.18;8.10;;;;;;;0.93;67.00;100911.81;5052402;28;20052;-62
2021/04/26 03:59:15;;;;;;;10.77;7.50;;;;;;;0.89;67.04;100921.59;5052009;28;20045;-62
2021/04/26 04:01:45;;;;;;;12.43;7.40;;;;;;;0.86;67.13;100921.22;5052202;28;20064;-62
2021/04/26 04:04:12;;;;;;;10.65;7.72;;;;;;;0.86;67.34;100923.97;5051848;28;20053;-62
2021/04/26 04:06:42;;;;;;;16.13;8.35;;;;;;;0.87;67.67;100921.00;5051945;28;20052;-62
2021/04/26 04:09:09;;;;;;;15.15;8.20;;;;;;;0.90;67.59;100919.69;5051740;28;20057;-64
2021/04/26 04:11:37;;;;;;;13.38;8.27;;;;;;;0.90;67.48;100916.94;5052074;28;20049;-62
2021/04/26 04:14:04;;;;;;;11.88;7.97;;;;;;;0.92;67.40;100918.34;5051703;28;20052;-62
2021/04/26 04:16:32;;;;;;;14.35;8.23;;;;;;;0.91;67.47;100919.44;5034121;28;20053;-62
2021/04/26 04:19:00;;;;;;;12.30;8.82;;;;;;;0.90;67.47;100911.44;5032053;28;20064;-62
2021/04/26 04:21:27;;;;;;;11.43;7.45;;;;;;;0.92;67.30;100912.03;5031811;28;20420;-62
2021/04/26 04:23:54;;;;;;;11.95;7.72;;;;;;;0.95;67.18;100908.84;5037092;28;20057;-62
2021/04/26 04:26:21;;;;;;;13.55;7.63;;;;;;;0.97;67.55;100917.66;5051536;28;20053;-62
2021/04/26 04:28:48;;;;;;;11.70;7.10;;;;;;;1.00;67.41;100922.66;5052412;28;20057;-61
2021/04/26 04:31:15;;;;;;;11.65;7.30;;;;;;;1.02;66.99;100926.00;5051450;28;20049;-62
2021/04/26 04:33:42;;;;;;;12.52;6.95;;;;;;;1.06;66.78;100929.94;5052234;28;20060;-62
2021/04/26 04:36:10;;;;;;;12.02;7.78;;;;;;;1.07;66.99;100928.00;5052102;28;20057;-62
2021/04/26 04:38:40;;;;;;;12.00;8.00;;;;;;;1.09;66.73;100918.50;5051034;28;20044;-62
2021/04/26 04:41:07;;;;;;;12.65;7.97;;;;;;;1.12;66.91;100914.44;5051284;28;20391;-63
2021/04/26 04:43:34;;;;;;;18.27;9.30;;;;;;;1.10;67.09;100922.88;5052125;28;20068;-60
2021/04/26 04:46:01;;;;;;;14.30;8.88;;;;;;;1.16;67.44;100921.94;5051752;28;20056;-60
2021/04/26 04:48:30;;;;;;;16.05;9.13;;;;;;;1.22;67.41;100922.88;5055110;28;20053;-62
2021/04/26 04:50:57;;;;;;;13.88;9.10;;;;;;;1.27;67.13;100922.97;5055801;28;20049;-62
2021/04/26 04:53:25;;;;;;;15.98;9.43;;;;;;;1.31;67.73;100921.41;5049192;28;20053;-62
2021/04/26 04:55:52;;;;;;;13.35;8.65;;;;;;;1.33;67.13;100922.00;5035428;28;20053;-62
2021/04/26 04:58:19;;;;;;;15.05;9.20;;;;;;;1.36;66.84;100920.69;5035278;28;20054;-63
2021/04/26 05:00:45;;;;;;;15.65;10.25;;;;;;;1.33;66.33;100919.28;5035415;28;20057;-63
2021/04/26 05:03:12;;;;;;;15.10;9.70;;;;;;;1.38;66.27;100918.53;5035162;28;20056;-63
2021/04/26 05:05:39;;;;;;;16.92;9.82;;;;;;;1.37;66.03;100917.72;5035868;28;20080;-63
2021/04/26 05:08:08;;;;;;;17.48;9.55;;;;;;;1.41;65.98;100918.91;5034846;28;20053;-63
2021/04/26 05:10:38;;;;;;;13.93;9.05;;;;;;;1.47;65.98;100925.34;5034530;28;20057;-63
2021/04/26 05:13:05;;;;;;;12.55;9.23;;;;;;;1.47;65.87;100919.00;5041972;28;20051;-63
2021/04/26 05:15:32;;;;;;;12.63;8.57;;;;;;;1.55;65.66;100918.59;5047153;28;20053;-63
2021/04/26 05:18:00;;;;;;;19.85;7.97;;;;;;;1.66;66.04;100926.00;5034690;28;20065;-63
2021/04/26 05:20:27;;;;;;;14.05;8.38;;;;;;;1.73;65.06;100915.69;5050347;28;20072;-62
2021/04/26 05:22:54;;;;;;;10.55;7.85;;;;;;;1.81;65.55;100919.97;5045654;28;20060;-62
2021/04/26 05:25:21;;;;;;;16.00;8.18;;;;;;;1.78;65.33;100914.94;5050145;28;20057;-62
2021/04/26 05:27:49;;;;;;;11.00;8.10;;;;;;;1.86;65.56;100919.22;5044803;28;20064;-61
2021/04/26 05:30:17;;;;;;;16.20;9.20;;;;;;;1.92;65.36;100902.59;5054862;28;20068;-62
2021/04/26 05:32:44;;;;;;;16.92;10.25;;;;;;;1.96;65.29;100912.00;5036898;28;20053;-59
2021/04/26 05:35:11;;;;;;;12.85;8.20;;;;;;;2.02;65.42;100915.69;5034567;28;20049;-62
2021/04/26 05:37:38;;;;;;;14.20;8.98;;;;;;;2.08;65.52;100902.84;5034724;28;20064;-62
2021/04/26 05:40:06;;;;;;;13.90;8.27;;;;;;;2.15;65.29;100909.88;5050597;28;20045;-62
2021/04/26 05:42:33;;;;;;;12.73;8.35;;;;;;;2.26;64.69;100913.63;5039384;28;20056;-62
2021/04/26 05:45:03;;;;;;;15.07;9.10;;;;;;;2.36;65.11;100905.56;5033891;28;20069;-61
2021/04/26 05:47:30;;;;;;;15.00;9.18;;;;;;;2.42;64.59;100907.31;5035701;28;20053;-61
2021/04/26 05:49:57;;;;;;;14.75;10.15;;;;;;;2.51;64.82;100907.72;5034011;28;20058;-61
2021/04/26 05:52:25;;;;;;;14.50;10.13;;;;;;;2.55;64.44;100905.31;5042932;28;20414;-61
2021/04/26 05:54:52;;;;;;;16.90;10.35;;;;;;;2.67;64.27;100914.31;5048434;28;20052;-60
2021/04/26 05:57:19;;;;;;;16.83;9.95;;;;;;;2.79;64.05;100904.06;5045622;28;20045;-62
2021/04/26 05:59:45;;;;;;;12.35;8.88;;;;;;;2.92;63.69;100902.03;5053730;28;20048;-62
2021/04/26 06:02:13;;;;;;;16.88;10.50;;;;;;;3.00;63.54;100901.59;5058691;28;20067;-62
2021/04/26 06:04:40;;;;;;;14.88;9.73;;;;;;;3.09;63.47;100902.84;5073423;28;20056;-63
2021/04/26 06:07:07;;;;;;;16.20;10.38;;;;;;;3.15;63.67;100889.97;5065739;28;20079;-47
2021/04/26 06:09:34;;;;;;;18.45;9.93;;;;;;;2.97;64.00;100891.94;5059752;28;20482;-51
2021/04/26 06:12:01;;;;;;;13.40;9.40;;;;;;;3.09;63.86;100905.59;5053013;28;20054;-58
2021/04/26 06:14:27;;;;;;;15.35;10.02;;;;;;;3.29;63.93;100898.69;5039130;28;20049;-60
2021/04/26 06:16:54;;;;;;;13.80;8.85;;;;;;;3.45;63.05;100893.13;5046039;28;20401;-57
2021/04/26 06:19:22;;;;;;;17.20;9.80;;;;;;;3.65;62.64;100903.56;5054077;28;20061;-60
2021/04/26 06:21:49;;;;;;;14.82;9.68;;;;;;;3.75;62.45;100888.22;5046675;28;20049;-60
2021/04/26 06:24:16;;;;;;;14.85;11.38;;;;;;;3.91;62.23;100890.06;5039268;28;20049;-59
2021/04/26 06:26:45;;;;;;;18.10;10.45;;;;;;;4.04;61.92;100888.81;5033959;28;20057;-61
2021/04/26 06:29:12;;;;;;;16.98;9.60;;;;;;;4.19;61.57;100885.38;5033306;28;20061;-59
2021/04/26 06:31:39;;;;;;;14.20;9.35;;;;;;;4.35;61.91;100887.16;5033415;28;20057;-61
2021/04/26 06:34:06;;;;;;;14.15;9.68;;;;;;;4.45;61.14;100890.00;5033642;28;20510;-60
2021/04/26 06:36:33;;;;;;;18.48;10.23;;;;;;;4.58;60.81;100883.22;5033201;28;20390;-59
2021/04/26 06:39:01;;;;;;;14.88;9.82;;;;;;;4.69;60.78;100881.34;5035335;28;20048;-60
2021/04/26 06:41:27;;;;;;;15.43;9.93;;;;;;;4.80;60.12;100877.56;5052890;28;20379;-61
2021/04/26 06:43:54;;;;;;;16.60;10.38;;;;;;;4.92;60.16;100884.81;5051975;28;20041;-60
2021/04/26 06:46:21;;;;;;;16.00;9.48;;;;;;;5.02;59.67;100882.94;5040045;28;20052;-58
2021/04/26 06:48:49;;;;;;;15.15;9.48;;;;;;;5.13;59.89;100880.25;5051427;28;20055;-60
2021/04/26 06:51:16;;;;;;;14.23;9.82;;;;;;;5.28;59.26;100881.16;5052453;28;20053;-60
2021/04/26 06:53:44;;;;;;;12.60;8.40;;;;;;;5.41;59.64;100877.06;5038941;28;20050;-60
2021/04/26 06:56:11;;;;;;;13.40;9.10;;;;;;;5.54;59.29;100878.47;5043431;28;20434;-60
2021/04/26 06:58:38;;;;;;;14.52;8.95;;;;;;;5.67;58.46;100866.94;5051990;28;20588;-58
2021/04/26 07:01:05;;;;;;;11.15;8.23;;;;;;;5.83;58.11;100872.50;5046818;28;20046;-60
2021/04/26 07:03:32;;;;;;;11.23;8.77;;;;;;;5.95;58.23;100867.59;5044892;28;20049;-59
2021/04/26 07:05:59;;;;;;;12.15;8.52;;;;;;;6.11;56.93;100862.91;5040391;28;20136;-60
2021/04/26 07:08:26;;;;;;;14.02;8.27;;;;;;;6.25;56.68;100857.66;5036885;28;20390;-61
2021/04/26 07:10:56;;;;;;;10.85;8.80;;;;;;;6.45;56.79;100854.91;5042003;28;20053;-61
2021/04/26 07:13:23;;;;;;;12.48;8.35;;;;;;;6.96;54.91;100858.69;5046107;28;20049;-61
2021/04/26 07:15:50;;;;;;;13.20;8.27;;;;;;;7.91;52.33;100852.16;5049827;28;20053;-61
2021/04/26 07:18:17;;;;;;;10.65;7.68;;;;;;;9.15;48.34;100844.41;5034678;28;20053;-60
2021/04/26 07:20:44;;;;;;;12.55;8.50;;;;;;;10.46;45.19;100836.47;5050735;28;20053;-60
2021/04/26 07:23:11;;;;;;;11.70;7.25;;;;;;;11.58;41.83;100830.66;5049989;28;20174;-59
2021/04/26 07:25:38;;;;;;;10.27;7.60;;;;;;;12.63;40.05;100825.13;5049926;28;20045;-61
2021/04/26 07:28:08;;;;;;;10.88;7.10;;;;;;;13.73;38.80;100829.88;5038132;28;20057;-59
2021/04/26 07:30:35;;;;;;;10.73;7.13;;;;;;;14.66;35.53;100829.66;5049595;28;20053;-57
2021/04/26 07:33:02;;;;;;;9.02;6.63;;;;;;;15.41;33.69;100819.66;5050070;28;20052;-58
2021/04/26 07:35:29;;;;;;;8.63;6.65;;;;;;;16.24;31.91;100818.06;5051626;28;20064;-57
2021/04/26 07:37:56;;;;;;;9.75;6.10;;;;;;;17.00;30.31;100807.53;5051577;28;20056;-60
2021/04/26 07:40:23;;;;;;;8.07;6.80;;;;;;;17.65;28.81;100798.38;5051058;28;20052;-60
2021/04/26 07:42:50;;;;;;;9.55;6.80;;;;;;;18.63;28.06;100809.34;5051767;28;20676;-60
2021/04/26 07:45:20;;;;;;;9.38;6.15;;;;;;;19.52;26.51;100800.72;5036633;28;20056;-60
2021/04/26 07:47:48;;;;;;;7.57;6.10;;;;;;;20.44;25.04;100803.97;5045400;28;20049;-60
2021/04/26 07:50:15;;;;;;;9.48;6.38;;;;;;;21.23;24.55;100805.41;5050740;28;20048;-60
2021/04/26 07:52:42;;;;;;;8.95;5.80;;;;;;;22.04;23.02;100799.38;5034159;28;20058;-61
2021/04/26 07:55:10;;;;;;;9.18;5.18;;;;;;;22.74;21.87;100790.47;5049298;28;20462;-61
2021/04/26 07:57:38;;;;;;;10.32;5.38;;;;;;;23.72;21.20;100788.06;5049539;28;20053;-61
2021/04/26 08:00:06;;;;;;;10.55;4.72;;;;;;;24.17;20.20;100793.59;5050942;28;20052;-61
2021/04/26 08:02:34;;;;;;;6.97;4.28;;;;;;;24.88;18.14;100787.31;5031353;28;20068;-61
2021/04/26 08:05:01;;;;;;;7.53;4.35;;;;;;;25.50;17.92;100791.84;5048245;28;20075;-61
2021/04/26 08:07:28;;;;;;;5.65;3.90;;;;;;;26.25;16.96;100785.94;5044356;28;20064;-61
2021/04/26 08:09:54;;;;;;;6.10;3.45;;;;;;;26.68;15.25;100777.16;5047058;28;20053;-61
2021/04/26 08:12:21;;;;;;;3.75;2.67;;;;;;;27.22;15.32;100771.06;5050999;28;20049;-62
2021/04/26 08:14:51;;;;;;;4.57;3.50;;;;;;;28.12;14.90;100773.00;5050358;28;20064;-62
2021/04/26 08:17:17;;;;;;;;;;;;;;;28.48;13.40;100784.78;5051769;28;20049;-62
2021/04/26 08:19:45;;;;;;;3.70;2.30;;;;;;;29.30;12.07;100781.94;5043530;28;19924;-62
2021/04/26 08:22:13;;;;;;;3.47;2.45;;;;;;;29.88;11.72;100776.78;5051498;28;20409;-62
2021/04/26 08:24:40;;;;;;;4.88;2.50;;;;;;;30.24;10.35;100773.16;5053526;28;20524;-62
2021/04/26 08:27:07;;;;;;;3.97;2.30;;;;;;;30.57;10.50;100770.41;5048798;28;20052;-62
2021/04/26 08:29:34;;;;;;;3.97;2.20;;;;;;;31.08;9.89;100767.97;5046970;28;20049;-62
2021/04/26 08:32:01;;;;;;;3.70;2.60;;;;;;;31.46;10.07;100761.69;5054416;28;20059;-62
2021/04/26 08:34:30;;;;;;;4.53;2.60;;;;;;;32.22;9.50;100759.56;5054743;28;20056;-63
2021/04/26 08:36:58;;;;;;;3.67;2.50;;;;;;;32.86;8.48;100748.88;5055102;28;20053;-63
2021/04/26 08:39:25;;;;;;;4.57;2.38;;;;;;;33.54;8.33;100758.16;5052578;28;20494;-63
2021/04/26 08:41:52;;;;;;;3.67;2.35;;;;;;;34.26;7.78;100758.41;5055480;28;20063;-64
2021/04/26 08:44:19;;;;;;;3.90;2.10;;;;;;;35.29;6.93;100751.78;5053473;28;20056;-63
2021/04/26 08:46:46;;;;;;;3.53;1.90;;;;;;;35.49;6.36;100755.03;5054674;28;20060;-63
2021/04/26 08:49:16;;;;;;;2.40;1.98;;;;;;;36.50;5.86;100748.34;5040171;28;20049;-63
2021/04/26 08:51:44;;;;;;;3.42;2.35;;;;;;;37.16;5.63;100755.47;5054484;28;20059;-63
2021/04/26 08:54:14;;;;;;;4.07;2.05;;;;;;;38.16;4.47;100749.38;5054814;28;20072;-62
2021/04/26 08:56:41;;;;;;;2.47;1.75;;;;;;;38.76;5.00;100753.84;5054429;28;20047;-63
2021/04/26 08:59:10;;;;;;;2.85;2.03;;;;;;;38.80;4.41;100749.91;5055031;28;20053;-63
2021/04/26 09:01:40;;;;;;;3.60;2.40;;;;;;;39.42;3.81;100742.91;5047047;28;20128;-63
2021/04/26 09:04:08;;;;;;;2.63;2.03;;;;;;;39.12;4.12;100748.03;5054691;28;20393;-62
2021/04/26 09:06:53;;;;;;;3.83;2.40;;;;;;;39.87;3.81;100749.28;5042458;28;20049;-62
2021/04/26 09:09:41;;;;;;;3.30;2.20;;;;;;;40.31;3.88;100738.59;5045044;28;20052;-62
2021/04/26 09:12:11;;;;;;;3.47;2.10;;;;;;;41.02;3.36;100735.97;5044297;28;20057;-59
2021/04/26 09:14:46;;;;;;;3.88;2.45;;;;;;;41.27;2.92;100740.09;5053016;28;20053;-61
2021/04/26 09:17:33;;;;;;;4.35;2.80;;;;;;;41.21;3.03;100733.44;5053777;28;20060;-62
2021/04/26 09:20:19;;;;;;;3.20;2.23;;;;;;;41.21;3.47;100735.56;5046712;28;20057;-62
2021/04/26 09:22:48;;;;;;;3.63;2.20;;;;;;;40.97;3.32;100733.78;5040399;28;20056;-60
2021/04/26 09:25:38;;;;;;;2.92;2.00;;;;;;;41.27;3.38;100715.94;5044203;28;20061;-62
2021/04/26 09:28:07;;;;;;;3.15;2.15;;;;;;;41.48;3.41;100725.31;5048652;28;20406;-60
2021/04/26 09:30:49;;;;;;;3.03;1.98;;;;;;;41.09;3.36;100729.63;5052508;28;20056;-62
2021/04/26 09:33:28;;;;;;;2.90;2.55;;;;;;;41.24;3.25;100726.53;5053334;28;20076;-63
2021/04/26 09:36:15;;;;;;;2.83;2.28;;;;;;;41.66;3.45;100719.00;5053171;28;20064;-62
2021/04/26 09:38:45;;;;;;;3.28;2.08;;;;;;;42.44;2.79;100728.47;5050573;28;20053;-62
2021/04/26 09:41:18;;;;;;;3.03;2.33;;;;;;;42.45;3.26;100725.00;5033312;28;20064;-62
2021/04/26 09:43:47;;;;;;;3.78;1.92;;;;;;;43.03;3.32;100715.63;5041946;28;20087;-62
2021/04/26 09:46:15;;;;;;;4.05;2.20;;;;;;;43.65;2.56;100714.56;5052761;28;20063;-62
2021/04/26 09:48:43;;;;;;;3.65;2.30;;;;;;;43.03;3.22;100703.88;5053402;28;20049;-62
2021/04/26 09:51:17;;;;;;;2.67;2.20;;;;;;;43.84;2.13;100703.78;5053405;28;20052;-62
2021/04/26 09:53:52;;;;;;;3.17;2.50;;;;;;;43.88;2.28;100694.69;5050213;28;20053;-62
2021/04/26 09:56:23;;;;;;;3.22;2.50;;;;;;;44.08;2.15;100696.44;5050253;28;20115;-62
2021/04/26 09:58:52;;;;;;;3.45;2.08;;;;;;;44.24;2.38;100698.44;5035951;28;20482;-62
2021/04/26 10:01:19;;;;;;;3.13;2.08;;;;;;;44.76;1.83;100697.41;5053116;28;20060;-62
2021/04/26 10:03:46;;;;;;;3.08;1.92;;;;;;;44.93;1.74;100696.47;5051979;28;20056;-62
2021/04/26 10:06:15;;;;;;;3.83;2.45;;;;;;;44.97;1.57;100691.84;5052631;28;20067;-62
2021/04/26 10:08:45;;;;;;;3.50;2.40;;;;;;;44.10;2.54;100674.00;5050004;28;20162;-62
2021/04/26 10:11:12;;;;;;;3.78;2.13;;;;;;;44.32;1.90;100675.94;5049246;28;20068;-62
2021/04/26 10:13:40;;;;;;;3.58;2.35;;;;;;;44.14;2.03;100673.69;5052141;28;20486;-62
2021/04/26 10:16:10;;;;;;;5.32;2.60;;;;;;;44.13;1.89;100675.84;5052305;28;20049;-62
2021/04/26 10:18:39;;;;;;;5.35;2.40;;;;;;;44.14;2.31;100670.75;5051580;28;20386;-62
2021/04/26 10:21:30;;;;;;;3.00;2.40;;;;;;;44.21;2.37;100664.28;5052216;28;20064;-62
2021/04/26 10:23:58;;;;;;;2.78;1.90;;;;;;;44.32;2.02;100664.19;5084692;22;20043;-72
2021/04/26 10:26:48;;;;;;;3.45;2.10;;;;;;;43.76;2.60;100653.66;5089108;28;20052;-72
2021/04/26 10:29:20;;;;;;;2.97;1.90;;;;;;;44.24;2.49;100653.59;5083520;28;20044;-72
2021/04/26 10:32:07;;;;;;;3.75;2.35;;;;;;;44.33;2.02;100656.16;5073941;28;20056;-72
2021/04/26 10:34:39;;;;;;;3.47;2.45;;;;;;;44.52;2.07;100657.09;5072904;28;20048;-72
2021/04/26 10:37:21;;;;;;;2.85;2.28;;;;;;;44.65;2.15;100649.72;5073857;28;20060;-72
2021/04/26 10:40:09;;;;;;;4.35;2.13;;;;;;;44.83;2.26;100643.09;5073016;28;20055;-72
2021/04/26 10:42:42;;;;;;;3.70;2.40;;;;;;;44.07;2.22;100631.03;5089822;28;20060;-72
2021/04/26 10:45:47;;;;;;;6.07;2.53;;;;;;;44.59;2.54;100629.22;5079833;28;20119;-72
2021/04/26 10:48:18;;;;;;;3.25;2.15;;;;;;;44.54;2.10;100621.25;5047146;28;20063;-73
2021/04/26 10:50:54;;;;;;;2.67;2.15;;;;;;;45.01;2.00;100617.25;5085103;28;20040;-72
2021/04/26 10:53:43;;;;;;;4.32;2.50;;;;;;;44.89;2.31;100620.34;5087808;28;20048;-72
2021/04/26 10:56:27;;;;;;;3.00;2.42;;;;;;;45.28;2.06;100613.16;5095021;28;20063;-72
2021/04/26 10:59:24;;;;;;;4.45;2.45;;;;;;;45.48;1.71;100614.72;5093777;28;20052;-72
2021/04/26 11:01:57;;;;;;;2.33;2.08;;;;;;;45.89;1.99;100612.78;5073609;28;20079;-72
2021/04/26 11:04:25;;;;;;;2.75;2.33;;;;;;;45.95;1.56;100598.72;5088857;28;20048;-72
2021/04/26 11:07:04;;;;;;;3.25;2.30;;;;;;;45.63;1.46;100604.63;5094385;28;20067;-72
2021/04/26 11:09:39;;;;;;;2.90;2.25;;;;;;;46.15;1.36;100600.28;5095207;28;20493;-72
2021/04/26 11:12:31;;;;;;;3.35;2.35;;;;;;;46.17;1.80;100594.63;5112821;28;20055;-72
2021/04/26 11:15:14;;;;;;;3.40;2.30;;;;;;;45.41;1.63;100591.84;5106849;28;20052;-72
2021/04/26 11:17:44;;;;;;;2.55;1.92;;;;;;;45.21;2.39;100589.44;5105977;28;20067;-72
2021/04/26 11:20:18;;;;;;;3.42;2.30;;;;;;;45.65;1.27;100581.31;5090640;28;20052;-72
2021/04/26 11:22:52;;;;;;;3.80;2.58;;;;;;;45.29;1.14;100572.78;5097526;28;20059;-72
2021/04/26 11:25:34;;;;;;;2.78;2.38;;;;;;;44.77;1.89;100569.69;5095019;28;20055;-71
2021/04/26 11:28:05;;;;;;;3.63;2.35;;;;;;;45.13;1.77;100577.50;5092300;28;20047;-72
2021/04/26 11:30:35;;;;;;;5.60;2.30;;;;;;;45.21;1.98;100562.97;5092659;28;20059;-73
2021/04/26 11:33:14;;;;;;;3.30;2.35;;;;;;;44.15;1.96;100563.72;5092956;28;20051;-74
2021/04/26 11:36:21;;;;;;;4.97;2.47;;;;;;;44.52;1.89;100562.25;5091254;28;20067;-72
2021/04/26 11:38:51;;;;;;;4.32;2.25;;;;;;;44.81;1.72;100563.50;5075903;28;20048;-73
2021/04/26 11:41:22;;;;;;;3.20;2.20;;;;;;;44.64;1.68;100551.16;5093326;28;20063;-73
2021/04/26 11:43:54;;;;;;;3.20;2.47;;;;;;;44.44;2.21;100552.44;5086561;28;20420;-72